Time;durP1;ratioP1;P1;durP2;ratioP2;P2;SDS_P1;SDS_P2;PMS_P1;PMS_P2;Temp;Humidity;BMP_temperature;BMP_pressure;BME280_temperature;BME280_humidity;BME280_pressure;Samples;Min_cycle;Max_cycle;Signal;HPM_P1;HPM_P2
2024/02/18 00:00:08;;;;;;;46.75;25.35;;;;;;;7.03;100.00;98242.53;5012854;28;20046;-71
2024/02/18 00:02:34;;;;;;;47.08;25.58;;;;;;;7.02;100.00;98242.81;5017648;28;20056;-71
2024/02/18 00:05:06;;;;;;;46.83;26.08;;;;;;;6.98;100.00;98241.84;5019071;28;20215;-70
2024/02/18 00:07:32;;;;;;;44.42;23.38;;;;;;;6.99;100.00;98240.72;5001302;28;20037;-71
2024/02/18 00:09:57;;;;;;;47.97;25.15;;;;;;;6.97;100.00;98232.84;5015312;28;20041;-70
2024/02/18 00:12:26;;;;;;;43.30;23.77;;;;;;;6.95;100.00;98237.81;5018201;28;20621;-73
2024/02/18 00:14:52;;;;;;;39.95;23.48;;;;;;;7.01;100.00;98241.22;5023539;28;20041;-70
2024/02/18 00:17:18;;;;;;;41.50;24.73;;;;;;;6.97;100.00;98241.03;5018790;28;20148;-71
2024/02/18 00:19:43;;;;;;;43.55;24.60;;;;;;;7.01;100.00;98249.41;5022524;28;20496;-70
2024/02/18 00:22:08;;;;;;;43.20;23.95;;;;;;;7.04;100.00;98248.78;5018240;28;20799;-69
2024/02/18 00:24:34;;;;;;;43.03;25.73;;;;;;;7.08;100.00;98255.25;5012138;28;20074;-71
2024/02/18 00:26:59;;;;;;;41.55;24.08;;;;;;;7.08;100.00;98256.03;5018197;28;21447;-70
2024/02/18 00:29:25;;;;;;;43.33;23.17;;;;;;;7.04;100.00;98257.78;5015686;28;20137;-69
2024/02/18 00:31:50;;;;;;;40.90;23.08;;;;;;;7.19;100.00;98255.81;5023079;28;20038;-69
2024/02/18 00:34:21;;;;;;;43.65;23.92;;;;;;;7.24;100.00;98247.53;5017273;28;20041;-69
2024/02/18 00:36:47;;;;;;;42.78;24.38;;;;;;;6.87;100.00;98247.47;5022380;28;20080;-70
2024/02/18 00:39:14;;;;;;;44.92;25.27;;;;;;;6.83;100.00;98245.69;5017695;28;20065;-69
2024/02/18 00:41:43;;;;;;;38.50;24.23;;;;;;;7.08;100.00;98250.59;5020829;28;20456;-70
2024/02/18 00:44:09;;;;;;;41.90;25.27;;;;;;;7.19;100.00;98244.94;5018334;28;20073;-69
2024/02/18 00:46:34;;;;;;;41.25;24.92;;;;;;;7.04;100.00;98240.59;5033840;28;20539;-69
2024/02/18 00:49:00;;;;;;;46.95;26.00;;;;;;;7.02;100.00;98251.81;5022146;28;20132;-70
2024/02/18 00:51:25;;;;;;;43.05;24.30;;;;;;;7.17;100.00;98242.50;5017491;28;20040;-70
2024/02/18 00:53:51;;;;;;;47.95;27.85;;;;;;;7.03;100.00;98247.19;5020791;28;20042;-70
2024/02/18 00:56:17;;;;;;;49.13;26.58;;;;;;;6.76;100.00;98243.38;5016992;28;20132;-71
2024/02/18 00:58:42;;;;;;;48.30;27.90;;;;;;;6.87;100.00;98247.47;5022151;28;20045;-73
2024/02/18 01:01:07;;;;;;;56.20;27.65;;;;;;;6.86;100.00;98242.34;5019128;28;20099;-71
2024/02/18 01:03:33;;;;;;;46.58;27.10;;;;;;;6.85;100.00;98243.47;5021290;28;20056;-70
2024/02/18 01:05:58;;;;;;;51.28;28.05;;;;;;;6.84;100.00;98245.38;5021994;28;20417;-71
2024/02/18 01:08:23;;;;;;;47.28;27.00;;;;;;;6.88;100.00;98242.88;5015236;28;20110;-70
2024/02/18 01:10:49;;;;;;;44.58;24.83;;;;;;;6.86;100.00;98242.34;5017833;28;20048;-69
2024/02/18 01:13:14;;;;;;;46.35;27.67;;;;;;;6.67;100.00;98239.75;5016282;28;20578;-69
2024/02/18 01:15:39;;;;;;;50.45;27.25;;;;;;;6.44;100.00;98250.50;5012268;28;20127;-70
2024/02/18 01:18:05;;;;;;;43.40;25.40;;;;;;;6.37;100.00;98252.81;5016185;28;20122;-72
2024/02/18 01:20:30;;;;;;;47.53;27.25;;;;;;;6.16;100.00;98252.41;5021087;28;20044;-71
2024/02/18 01:22:56;;;;;;;46.95;29.08;;;;;;;5.91;100.00;98261.78;5023028;28;20038;-71
2024/02/18 01:25:21;;;;;;;54.17;30.42;;;;;;;5.83;100.00;98251.59;4992405;28;20066;-71
2024/02/18 01:27:47;;;;;;;53.30;30.27;;;;;;;5.78;100.00;98254.38;5022317;28;20695;-71
2024/02/18 01:30:13;;;;;;;60.90;32.22;;;;;;;5.76;100.00;98249.25;5020257;28;20041;-71
2024/02/18 01:32:38;;;;;;;56.40;32.80;;;;;;;5.77;100.00;98252.78;5024959;28;20045;-71
2024/02/18 01:35:04;;;;;;;59.30;30.95;;;;;;;5.82;100.00;98252.69;5018069;28;20042;-69
2024/02/18 01:37:29;;;;;;;56.45;30.83;;;;;;;5.94;100.00;98258.47;5023492;28;20364;-71
2024/02/18 01:39:55;;;;;;;56.03;31.17;;;;;;;6.04;100.00;98247.44;5029074;28;20061;-70
2024/02/18 01:42:20;;;;;;;52.58;29.00;;;;;;;6.06;100.00;98241.72;5028239;28;20137;-69
2024/02/18 01:44:46;;;;;;;55.42;29.63;;;;;;;6.07;100.00;98246.06;5025917;28;20440;-71
2024/02/18 01:47:11;;;;;;;48.58;28.23;;;;;;;6.12;100.00;98246.75;5021154;28;20038;-71
2024/02/18 01:49:38;;;;;;;45.70;26.95;;;;;;;6.17;100.00;98234.97;5005385;28;20037;-71
2024/02/18 01:52:03;;;;;;;52.50;27.92;;;;;;;6.16;100.00;98235.25;5017811;28;20045;-71
2024/02/18 01:54:33;;;;;;;43.15;25.90;;;;;;;6.16;100.00;98229.81;5021978;28;20432;-71
2024/02/18 01:57:01;;;;;;;41.75;26.40;;;;;;;6.04;100.00;98228.41;5020158;28;20046;-71
2024/02/18 01:59:28;;;;;;;43.53;25.40;;;;;;;5.91;100.00;98219.09;5018102;28;20042;-71
2024/02/18 02:01:54;;;;;;;42.80;26.23;;;;;;;5.86;100.00;98221.88;5022285;28;20056;-70
2024/02/18 02:04:19;;;;;;;46.03;26.00;;;;;;;5.75;100.00;98215.00;5016450;28;20034;-71
2024/02/18 02:06:45;;;;;;;43.65;26.05;;;;;;;5.74;100.00;98211.50;5020600;28;20038;-71
2024/02/18 02:09:11;;;;;;;43.47;25.63;;;;;;;5.61;100.00;98209.53;5013058;28;20149;-71
2024/02/18 02:11:37;;;;;;;44.53;25.23;;;;;;;5.50;100.00;98208.09;5021100;28;20111;-70
2024/02/18 02:14:03;;;;;;;51.05;26.98;;;;;;;5.45;100.00;98205.44;5016972;28;20044;-71
2024/02/18 02:16:29;;;;;;;48.00;28.20;;;;;;;5.35;100.00;98201.00;5021816;28;20033;-71
2024/02/18 02:18:56;;;;;;;43.90;25.02;;;;;;;5.33;100.00;98200.44;5024242;28;20353;-71
2024/02/18 02:21:22;;;;;;;43.22;25.52;;;;;;;5.53;100.00;98208.31;4999141;28;20065;-71
2024/02/18 02:23:47;;;;;;;44.63;25.35;;;;;;;5.50;100.00;98203.44;5019933;28;20140;-70
2024/02/18 02:26:14;;;;;;;45.90;26.17;;;;;;;5.34;100.00;98202.88;5014544;28;20099;-69
2024/02/18 02:28:46;;;;;;;46.83;25.77;;;;;;;5.14;100.00;98198.56;5020843;28;20052;-69
2024/02/18 02:31:13;;;;;;;47.70;26.15;;;;;;;5.16;100.00;98190.91;5015704;28;20045;-70
2024/02/18 02:33:38;;;;;;;42.55;24.65;;;;;;;5.09;100.00;98193.19;5017567;28;20477;-70
2024/02/18 02:36:04;;;;;;;40.65;24.33;;;;;;;5.12;100.00;98195.34;5013053;28;20129;-70
2024/02/18 02:38:31;;;;;;;48.53;24.95;;;;;;;4.96;100.00;98199.38;5020035;28;20357;-70
2024/02/18 02:40:56;;;;;;;42.38;25.40;;;;;;;4.79;100.00;98197.19;5018604;28;20041;-70
2024/02/18 02:43:23;;;;;;;44.55;26.02;;;;;;;4.70;100.00;98190.75;5016624;28;20068;-71
2024/02/18 02:45:49;;;;;;;39.72;22.58;;;;;;;4.62;100.00;98191.41;5020394;28;20038;-71
2024/02/18 02:48:14;;;;;;;39.40;23.15;;;;;;;4.65;100.00;98191.66;5025022;28;20520;-70
2024/02/18 02:50:39;;;;;;;35.40;22.30;;;;;;;4.52;100.00;98195.06;5025704;28;20489;-70
2024/02/18 02:53:05;;;;;;;35.55;21.77;;;;;;;4.46;100.00;98191.59;4997517;28;20038;-70
2024/02/18 02:55:30;;;;;;;31.60;20.33;;;;;;;4.51;100.00;98182.59;5020758;28;20065;-70
2024/02/18 02:57:56;;;;;;;39.13;20.17;;;;;;;4.57;100.00;98184.97;5019555;28;20042;-70
2024/02/18 03:00:21;;;;;;;45.03;19.40;;;;;;;4.43;100.00;98188.66;5013844;28;20045;-70
2024/02/18 03:02:47;;;;;;;160.35;26.52;;;;;;;3.97;100.00;98182.66;5001349;28;20049;-71
2024/02/18 03:05:12;;;;;;;46.58;21.13;;;;;;;3.75;100.00;98182.34;5015031;28;20041;-70
2024/02/18 03:07:38;;;;;;;27.33;18.08;;;;;;;3.77;100.00;98183.66;5020489;28;20115;-70
2024/02/18 03:10:04;;;;;;;31.58;19.95;;;;;;;3.96;100.00;98180.22;5009211;28;20132;-69
2024/02/18 03:12:30;;;;;;;30.92;19.38;;;;;;;4.16;100.00;98179.19;5018779;28;20041;-71
2024/02/18 03:14:55;;;;;;;32.88;20.33;;;;;;;4.14;100.00;98179.50;5020353;28;20060;-69
2024/02/18 03:17:21;;;;;;;29.00;18.13;;;;;;;4.08;100.00;98177.94;5014203;28;20628;-69
2024/02/18 03:19:46;;;;;;;43.03;21.35;;;;;;;3.90;100.00;98170.53;5019302;28;20068;-70
2024/02/18 03:22:18;;;;;;;33.70;20.77;;;;;;;3.88;100.00;98173.53;5014949;28;20042;-71
2024/02/18 03:24:43;;;;;;;43.80;23.08;;;;;;;3.78;100.00;98171.75;5019587;28;20132;-69
2024/02/18 03:27:09;;;;;;;29.30;18.42;;;;;;;3.87;100.00;98169.22;5010809;28;20133;-69
2024/02/18 03:29:34;;;;;;;30.90;20.38;;;;;;;3.98;100.00;98162.59;5004730;28;20064;-70
2024/02/18 03:32:00;;;;;;;33.50;21.77;;;;;;;4.08;100.00;98174.41;5020594;28;20072;-68
2024/02/18 03:34:25;;;;;;;31.50;20.23;;;;;;;4.10;100.00;98167.59;5016370;28;20083;-69
2024/02/18 03:36:50;;;;;;;40.30;22.10;;;;;;;3.92;100.00;98162.94;5000918;28;20048;-69
2024/02/18 03:39:16;;;;;;;33.05;21.17;;;;;;;3.80;100.00;98166.84;5012192;28;20099;-70
2024/02/18 03:41:42;;;;;;;31.15;20.33;;;;;;;3.84;100.00;98167.06;5018694;28;20045;-68
2024/02/18 03:44:07;;;;;;;30.25;20.63;;;;;;;3.85;100.00;98165.16;5014665;28;20369;-69
2024/02/18 03:46:33;;;;;;;37.15;22.25;;;;;;;3.85;100.00;98165.16;5020227;28;20038;-68
2024/02/18 03:48:58;;;;;;;37.63;23.20;;;;;;;3.91;100.00;98169.47;5027724;28;20041;-68
2024/02/18 03:51:23;;;;;;;33.95;22.20;;;;;;;3.88;100.00;98170.81;5017117;28;20119;-68
2024/02/18 03:53:49;;;;;;;37.47;22.60;;;;;;;3.92;100.00;98154.78;5024646;28;20145;-69
2024/02/18 03:56:14;;;;;;;34.97;20.92;;;;;;;3.83;100.00;98160.84;5017210;28;20041;-68
2024/02/18 03:58:40;;;;;;;36.83;22.50;;;;;;;3.71;100.00;98162.31;5023700;28;20037;-70
2024/02/18 04:01:05;;;;;;;34.05;22.33;;;;;;;3.43;100.00;98164.75;5025040;28;20120;-69
2024/02/18 04:03:30;;;;;;;32.90;20.38;;;;;;;3.26;100.00;98154.31;5023316;28;20042;-69
2024/02/18 04:05:56;;;;;;;33.88;21.15;;;;;;;3.29;100.00;98161.06;5023907;28;20034;-69
2024/02/18 04:08:21;;;;;;;32.47;21.20;;;;;;;3.47;100.00;98163.06;5018390;28;20487;-69
2024/02/18 04:10:47;;;;;;;36.40;22.85;;;;;;;3.52;100.00;98164.94;5016944;28;20042;-71
2024/02/18 04:13:13;;;;;;;31.65;20.35;;;;;;;3.54;100.00;98168.16;5017450;28;20481;-70
2024/02/18 04:15:41;;;;;;;29.88;20.85;;;;;;;3.55;100.00;98161.66;5022272;28;20041;-70
2024/02/18 04:18:06;;;;;;;30.45;19.95;;;;;;;3.55;100.00;98165.19;5017317;28;20044;-70
2024/02/18 04:20:31;;;;;;;32.35;20.50;;;;;;;3.50;100.00;98169.84;5022904;28;20292;-70
2024/02/18 04:22:57;;;;;;;38.03;20.45;;;;;;;3.39;100.00;98174.53;5023410;28;20041;-70
2024/02/18 04:25:22;;;;;;;36.25;20.05;;;;;;;3.06;100.00;98168.81;5016722;28;20048;-69
2024/02/18 04:27:48;;;;;;;32.95;20.02;;;;;;;2.85;100.00;98171.66;4988960;28;20044;-70
2024/02/18 04:30:13;;;;;;;58.30;23.45;;;;;;;2.75;100.00;98179.81;5017898;28;20072;-70
2024/02/18 04:32:38;;;;;;;36.15;22.50;;;;;;;2.65;100.00;98171.78;5022563;28;20500;-70
2024/02/18 04:35:05;;;;;;;82.50;28.30;;;;;;;2.58;100.00;98171.28;5019284;28;20068;-69
2024/02/18 04:37:30;;;;;;;37.03;23.33;;;;;;;2.66;100.00;98165.25;5022430;28;20389;-70
2024/02/18 04:39:57;;;;;;;45.03;22.73;;;;;;;2.82;100.00;98166.78;4996126;28;20052;-69
2024/02/18 04:42:22;;;;;;;33.75;22.08;;;;;;;2.89;100.00;98171.91;5017318;28;21035;-71
2024/02/18 04:44:47;;;;;;;32.97;21.83;;;;;;;2.92;100.00;98173.22;5022215;28;20075;-71
2024/02/18 04:47:13;;;;;;;31.15;21.00;;;;;;;2.94;100.00;98173.78;5016391;28;20041;-71
2024/02/18 04:49:39;;;;;;;29.67;19.70;;;;;;;2.98;100.00;98166.72;4999188;28;20127;-71
2024/02/18 04:52:05;;;;;;;39.88;22.42;;;;;;;2.89;100.00;98168.41;5036723;28;20025;-73
2024/02/18 04:54:30;;;;;;;35.78;22.63;;;;;;;2.85;100.00;98171.66;5015876;28;20575;-72
2024/02/18 04:56:56;;;;;;;28.63;20.25;;;;;;;2.85;100.00;98171.66;5014938;28;20112;-71
2024/02/18 04:59:21;;;;;;;31.98;20.77;;;;;;;2.87;100.00;98179.50;5009836;28;20072;-73
2024/02/18 05:01:47;;;;;;;28.45;20.13;;;;;;;2.86;100.00;98173.28;5030360;28;20499;-73
2024/02/18 05:04:13;;;;;;;31.92;21.42;;;;;;;2.70;100.00;98173.63;5017431;28;20037;-71
2024/02/18 05:06:48;;;;;;;31.13;21.67;;;;;;;2.70;100.00;98169.03;5000145;28;20057;-72
2024/02/18 05:09:13;;;;;;;29.40;19.65;;;;;;;2.77;100.00;98172.22;5029820;28;20046;-72
2024/02/18 05:11:38;;;;;;;29.45;19.90;;;;;;;2.73;100.00;98175.78;5026174;28;20052;-72
2024/02/18 05:14:04;;;;;;;30.95;20.73;;;;;;;2.71;100.00;98172.56;5023761;28;20044;-72
2024/02/18 05:16:29;;;;;;;27.08;18.95;;;;;;;2.66;100.00;98171.47;5025277;28;20099;-70
2024/02/18 05:18:54;;;;;;;28.02;18.88;;;;;;;2.43;100.00;98170.25;5023111;28;20049;-71
2024/02/18 05:21:20;;;;;;;51.22;21.20;;;;;;;2.15;100.00;98169.00;5017401;28;20052;-72
2024/02/18 05:23:45;;;;;;;65.85;21.73;;;;;;;1.87;100.00;98163.16;5023050;28;20128;-72
2024/02/18 05:26:11;;;;;;;66.07;22.20;;;;;;;1.64;100.00;98161.00;5016116;28;20052;-72
2024/02/18 05:28:36;;;;;;;32.55;22.05;;;;;;;1.59;100.00;98169.94;5022193;28;20133;-72
2024/02/18 05:31:02;;;;;;;29.42;19.60;;;;;;;1.76;100.00;98169.63;5013068;28;20088;-72
2024/02/18 05:33:27;;;;;;;31.38;21.17;;;;;;;1.96;100.00;98176.09;5013110;28;20128;-71
2024/02/18 05:35:52;;;;;;;34.33;20.63;;;;;;;1.76;100.00;98163.44;5014301;28;20041;-71
2024/02/18 05:38:18;;;;;;;28.30;18.55;;;;;;;1.72;100.00;98169.38;5017615;28;20045;-70
2024/02/18 05:40:43;;;;;;;29.40;20.10;;;;;;;1.84;100.00;98168.28;5022258;28;20060;-72
2024/02/18 05:43:09;;;;;;;33.45;22.23;;;;;;;1.79;100.00;98161.00;5000097;28;20061;-72
2024/02/18 05:45:34;;;;;;;30.45;21.52;;;;;;;1.94;100.00;98160.16;5004569;28;20492;-72
2024/02/18 05:47:59;;;;;;;33.10;21.40;;;;;;;1.72;100.00;98163.19;5004772;28;20038;-71
2024/02/18 05:50:25;;;;;;;31.48;20.80;;;;;;;1.81;100.00;98171.53;5018008;28;20045;-73
2024/02/18 05:52:51;;;;;;;31.60;21.58;;;;;;;2.00;100.00;98164.47;5028473;28;20046;-72
2024/02/18 05:55:16;;;;;;;30.42;20.88;;;;;;;1.75;100.00;98162.63;5004438;28;20072;-73
2024/02/18 05:57:42;;;;;;;32.03;21.80;;;;;;;1.64;100.00;98167.25;5016984;28;20065;-72
2024/02/18 06:00:08;;;;;;;29.20;20.17;;;;;;;1.36;100.00;98165.09;5016975;28;20099;-73
2024/02/18 06:02:33;;;;;;;54.78;22.40;;;;;;;1.40;100.00;98172.38;5014038;28;20128;-73
2024/02/18 06:04:58;;;;;;;51.42;22.10;;;;;;;1.43;100.00;98171.03;5006171;28;20048;-72
2024/02/18 06:07:24;;;;;;;62.50;27.35;;;;;;;1.36;100.00;98168.59;5021655;28;20045;-72
2024/02/18 06:09:49;;;;;;;59.30;27.33;;;;;;;1.31;100.00;98174.84;5015403;28;20512;-72
2024/02/18 06:12:15;;;;;;;97.35;33.67;;;;;;;1.32;100.00;98171.03;5016457;28;20041;-72
2024/02/18 06:14:40;;;;;;;161.32;33.95;;;;;;;1.29;100.00;98176.16;5014918;28;20038;-72
2024/02/18 06:17:06;;;;;;;211.95;42.17;;;;;;;1.32;100.00;98176.44;5013446;28;20041;-73
2024/02/18 06:19:31;;;;;;;164.00;37.75;;;;;;;1.40;100.00;98177.78;5021577;28;20483;-72
2024/02/18 06:21:56;;;;;;;136.45;34.78;;;;;;;1.48;100.00;98176.44;5020588;28;20207;-72
2024/02/18 06:24:27;;;;;;;49.25;28.40;;;;;;;1.56;100.00;98177.78;5013892;28;20296;-72
2024/02/18 06:26:53;;;;;;;203.50;38.13;;;;;;;1.66;100.00;98185.88;5020908;28;20040;-72
2024/02/18 06:29:18;;;;;;;124.82;35.60;;;;;;;1.72;100.00;98184.78;4999890;28;20075;-72
2024/02/18 06:31:44;;;;;;;99.35;33.70;;;;;;;1.85;100.00;98184.22;5002227;28;20516;-73
2024/02/18 06:34:09;;;;;;;51.97;29.88;;;;;;;2.08;100.00;98182.81;5008476;28;20338;-71
2024/02/18 06:36:36;;;;;;;203.85;35.08;;;;;;;2.06;100.00;98181.47;5021033;28;20067;-71
2024/02/18 06:39:03;;;;;;;56.20;31.35;;;;;;;2.09;100.00;98186.34;5009774;28;20514;-73
2024/02/18 06:41:28;;;;;;;240.27;36.75;;;;;;;2.13;100.00;98194.72;5015159;28;20497;-72
2024/02/18 06:43:54;;;;;;;63.47;30.27;;;;;;;2.15;100.00;98187.94;5015449;28;20037;-72
2024/02/18 06:46:20;;;;;;;124.60;35.45;;;;;;;2.29;100.00;98185.47;5015927;28;20569;-72
2024/02/18 06:48:48;;;;;;;244.65;37.70;;;;;;;2.07;100.00;98181.19;5019671;28;20033;-73
2024/02/18 06:51:14;;;;;;;61.50;30.17;;;;;;;2.21;100.00;98183.31;5016926;28;20042;-73
2024/02/18 06:53:39;;;;;;;85.95;29.67;;;;;;;2.34;100.00;98180.03;5037074;28;20046;-74
2024/02/18 06:56:05;;;;;;;114.95;31.38;;;;;;;2.44;100.00;98171.06;5018876;28;20480;-72
2024/02/18 06:58:30;;;;;;;83.18;30.05;;;;;;;2.61;100.00;98174.22;5017882;28;20096;-71
2024/02/18 07:00:55;;;;;;;76.10;31.80;;;;;;;2.79;100.00;98171.94;5016173;28;20056;-72
2024/02/18 07:03:23;;;;;;;64.47;29.13;;;;;;;2.89;100.00;98179.22;5016251;28;21025;-72
2024/02/18 07:05:48;;;;;;;53.78;29.10;;;;;;;3.02;100.00;98176.69;5002404;28;20060;-72
2024/02/18 07:08:14;;;;;;;49.92;29.45;;;;;;;3.17;100.00;98178.50;5016769;28;20045;-72
2024/02/18 07:10:39;;;;;;;50.60;28.60;;;;;;;3.21;100.00;98174.13;5013027;28;20045;-72
2024/02/18 07:13:05;;;;;;;56.08;29.33;;;;;;;3.04;100.00;98179.94;5016038;28;20537;-70
2024/02/18 07:15:30;;;;;;;76.40;31.00;;;;;;;3.05;100.00;98180.72;5019165;28;20037;-70
2024/02/18 07:17:56;;;;;;;63.95;30.02;;;;;;;2.98;100.00;98177.53;5021716;28;20041;-71
2024/02/18 07:20:21;;;;;;;49.75;28.77;;;;;;;3.18;100.00;98182.78;5016008;28;20828;-71
2024/02/18 07:22:46;;;;;;;48.08;28.33;;;;;;;3.35;100.00;98174.28;5020706;28;20052;-71
2024/02/18 07:25:12;;;;;;;45.15;27.63;;;;;;;3.51;100.00;98180.41;5012193;28;20041;-71
2024/02/18 07:27:38;;;;;;;49.38;27.45;;;;;;;3.53;100.00;98180.09;5019936;28;20042;-70
2024/02/18 07:30:04;;;;;;;42.08;26.80;;;;;;;3.58;100.00;98172.75;5013036;28;20041;-72
2024/02/18 07:32:29;;;;;;;39.42;24.23;;;;;;;3.62;100.00;98167.56;5017554;28;20432;-71
2024/02/18 07:34:54;;;;;;;66.32;26.77;;;;;;;3.30;100.00;98165.41;5019828;28;20107;-71
2024/02/18 07:37:20;;;;;;;40.75;25.70;;;;;;;3.18;100.00;98161.13;5015819;28;21022;-72
2024/02/18 07:39:46;;;;;;;93.63;43.35;;;;;;;2.74;100.00;98166.56;5020477;28;20042;-72
2024/02/18 07:42:11;;;;;;;53.22;30.92;;;;;;;2.94;100.00;98160.25;5014506;28;20049;-73
2024/02/18 07:44:36;;;;;;;45.20;26.00;;;;;;;3.38;100.00;98154.75;5021121;28;20095;-72
2024/02/18 07:47:02;;;;;;;102.18;46.40;;;;;;;3.19;100.00;98162.75;5017113;28;20068;-74
2024/02/18 07:49:27;;;;;;;83.75;28.75;;;;;;;2.62;100.00;98159.59;5016761;28;20036;-73
2024/02/18 07:51:53;;;;;;;61.92;28.17;;;;;;;2.51;100.00;98155.34;5020935;28;20048;-73
2024/02/18 07:54:18;;;;;;;42.85;27.27;;;;;;;3.16;100.00;98155.19;5014196;28;20124;-72
2024/02/18 07:56:44;;;;;;;45.30;27.58;;;;;;;3.75;100.00;98153.34;5037807;28;20552;-73
2024/02/18 07:59:11;;;;;;;40.17;26.77;;;;;;;4.01;100.00;98142.22;5013391;28;20527;-72
2024/02/18 08:01:36;;;;;;;36.83;25.83;;;;;;;4.31;100.00;98140.25;5001138;28;20046;-72
2024/02/18 08:04:02;;;;;;;35.47;24.58;;;;;;;4.46;100.00;98140.06;5008548;28;20046;-72
2024/02/18 08:06:29;;;;;;;39.00;24.83;;;;;;;4.77;100.00;98143.16;5017712;28;20127;-72
2024/02/18 08:08:55;;;;;;;34.55;24.95;;;;;;;4.98;100.00;98132.81;5014811;28;20184;-72
2024/02/18 08:11:20;;;;;;;29.27;21.52;;;;;;;5.09;100.00;98133.44;4996928;28;20707;-73
2024/02/18 08:13:46;;;;;;;28.15;20.98;;;;;;;5.29;100.00;98134.22;5018437;28;20424;-73
2024/02/18 08:16:12;;;;;;;29.35;21.60;;;;;;;5.46;100.00;98128.25;4997003;28;20129;-72
2024/02/18 08:18:37;;;;;;;31.98;21.30;;;;;;;5.53;100.00;98117.81;5020580;28;20034;-73
2024/02/18 08:21:03;;;;;;;31.08;21.98;;;;;;;5.51;100.00;98117.28;5016020;28;20072;-74
2024/02/18 08:23:28;;;;;;;34.80;22.50;;;;;;;5.65;100.00;98120.03;5019023;28;20118;-72
2024/02/18 08:25:53;;;;;;;36.30;22.95;;;;;;;6.09;100.00;98108.63;5017143;28;20048;-71
2024/02/18 08:28:19;;;;;;;33.75;23.90;;;;;;;6.43;100.00;98109.31;5029482;28;20070;-72
2024/02/18 08:30:44;;;;;;;33.35;22.55;;;;;;;6.83;100.00;98104.88;5035884;28;20041;-73
2024/02/18 08:33:10;;;;;;;37.67;23.75;;;;;;;7.02;100.00;98110.16;5021991;28;20412;-73
2024/02/18 08:35:35;;;;;;;32.47;21.50;;;;;;;7.17;100.00;98105.47;5028246;28;20121;-72
2024/02/18 08:38:01;;;;;;;33.03;22.67;;;;;;;7.27;100.00;98100.56;5033782;28;20068;-72
2024/02/18 08:40:26;;;;;;;32.22;22.95;;;;;;;7.41;100.00;98102.41;5029302;28;20500;-72
2024/02/18 08:42:52;;;;;;;33.83;21.45;;;;;;;7.39;100.00;98107.38;5009818;28;20099;-72
2024/02/18 08:45:17;;;;;;;35.55;20.15;;;;;;;7.37;100.00;98099.50;5019152;28;20039;-71
2024/02/18 08:47:42;;;;;;;29.52;19.95;;;;;;;7.37;100.00;98096.78;5023140;28;20452;-71
2024/02/18 08:50:10;;;;;;;32.25;19.73;;;;;;;7.43;100.00;98102.91;5018199;28;20080;-72
2024/02/18 08:52:35;;;;;;;29.63;19.17;;;;;;;7.53;100.00;98091.75;4988984;28;20586;-72
2024/02/18 08:55:01;;;;;;;25.05;18.80;;;;;;;7.60;100.00;98091.31;5003996;28;20087;-73
2024/02/18 08:57:26;;;;;;;26.95;18.25;;;;;;;7.62;100.00;98092.59;5022771;28;20049;-73
2024/02/18 08:59:52;;;;;;;28.40;19.50;;;;;;;7.64;100.00;98098.53;5032194;28;20037;-70
2024/02/18 09:02:18;;;;;;;29.27;21.20;;;;;;;7.01;100.00;98088.69;5001050;28;20121;-73
2024/02/18 09:04:44;;;;;;;33.47;22.40;;;;;;;6.78;100.00;98087.84;5033581;28;20072;-72
2024/02/18 09:07:09;;;;;;;30.38;22.17;;;;;;;7.13;100.00;98088.94;5027565;28;20040;-72
2024/02/18 09:09:35;;;;;;;33.15;21.80;;;;;;;7.31;100.00;98080.84;5008432;28;20042;-72
2024/02/18 09:12:00;;;;;;;35.83;22.08;;;;;;;7.60;100.00;98075.75;5026149;28;20060;-72
2024/02/18 09:14:25;;;;;;;31.33;20.70;;;;;;;8.09;100.00;98072.25;5017787;28;20796;-72
2024/02/18 09:16:51;;;;;;;38.40;22.20;;;;;;;8.51;100.00;98070.75;5022258;28;20076;-72
2024/02/18 09:19:16;;;;;;;30.00;20.75;;;;;;;8.63;100.00;98058.41;4998940;28;20111;-72
2024/02/18 09:21:42;;;;;;;32.63;21.85;;;;;;;8.08;100.00;98062.44;5022260;28;20049;-72
2024/02/18 09:24:08;;;;;;;38.55;23.67;;;;;;;7.93;100.00;98063.69;4996017;28;20037;-70
2024/02/18 09:26:33;;;;;;;36.55;23.15;;;;;;;8.00;100.00;98056.63;5021535;28;20045;-70
2024/02/18 09:28:58;;;;;;;40.58;24.73;;;;;;;7.57;100.00;98062.72;5021839;28;20110;-72
2024/02/18 09:31:24;;;;;;;39.50;24.45;;;;;;;7.47;100.00;98062.97;4998988;28;20069;-71
2024/02/18 09:33:49;;;;;;;41.75;25.92;;;;;;;7.31;100.00;98062.59;5020037;28;20045;-73
2024/02/18 09:36:15;;;;;;;45.28;27.92;;;;;;;7.42;100.00;98071.31;5007253;28;20108;-72
2024/02/18 09:38:40;;;;;;;49.15;29.50;;;;;;;7.31;100.00;98062.59;5021809;28;20064;-74
2024/02/18 09:41:14;;;;;;;48.28;27.98;;;;;;;7.73;100.00;98063.13;5019069;28;20045;-72
2024/02/18 09:43:42;;;;;;;49.58;28.92;;;;;;;8.21;100.00;98067.78;5006571;28;20053;-71
2024/02/18 09:46:08;;;;;;;53.10;29.05;;;;;;;8.57;100.00;98074.94;5016417;28;20148;-70
2024/02/18 09:48:37;;;;;;;72.05;39.22;;;;;;;7.41;100.00;98069.69;5020693;28;20519;-71
2024/02/18 09:51:04;;;;;;;59.70;32.15;;;;;;;7.68;100.00;98073.38;5017566;28;20095;-72
2024/02/18 09:53:33;;;;;;;59.88;32.42;;;;;;;8.00;100.00;98066.75;5020668;28;20084;-71
2024/02/18 09:55:59;;;;;;;57.70;33.40;;;;;;;7.95;100.00;98064.97;5021447;28;20041;-71
2024/02/18 09:58:25;;;;;;;51.38;30.80;;;;;;;8.16;100.00;98065.19;5017122;28;20034;-72
2024/02/18 10:00:51;;;;;;;57.38;31.02;;;;;;;8.44;100.00;98059.47;5024455;28;20104;-71
2024/02/18 10:03:16;;;;;;;56.67;30.95;;;;;;;8.40;100.00;98056.56;5017747;28;20050;-72
2024/02/18 10:05:41;;;;;;;56.03;31.17;;;;;;;8.46;100.00;98048.25;5026030;28;20064;-71
2024/02/18 10:08:07;;;;;;;57.13;32.33;;;;;;;8.06;100.00;98051.03;5017101;28;20041;-71
2024/02/18 10:10:33;;;;;;;57.10;31.83;;;;;;;8.30;100.00;98048.69;5013925;28;20116;-71
2024/02/18 10:13:04;;;;;;;58.88;31.75;;;;;;;8.33;100.00;98037.13;5022272;28;20041;-70
2024/02/18 10:15:33;;;;;;;55.67;31.50;;;;;;;8.18;100.00;98032.13;5020857;28;20041;-71
2024/02/18 10:17:58;;;;;;;66.07;33.88;;;;;;;7.92;100.00;98030.13;5003279;28;20038;-71
2024/02/18 10:20:30;;;;;;;59.08;33.17;;;;;;;7.94;100.00;98035.25;5017513;28;20122;-71
2024/02/18 10:22:56;;;;;;;59.53;32.95;;;;;;;8.22;100.00;98033.88;5003436;28;20107;-71
2024/02/18 10:25:21;;;;;;;58.38;32.25;;;;;;;8.28;100.00;98033.75;4994346;28;20057;-71
2024/02/18 10:27:46;;;;;;;58.05;31.33;;;;;;;8.30;100.00;98035.03;5020689;28;20397;-71
2024/02/18 10:30:12;;;;;;;53.03;30.88;;;;;;;8.31;100.00;98041.28;5014212;28;20393;-67
2024/02/18 10:32:38;;;;;;;59.35;31.35;;;;;;;8.32;100.00;98031.97;5020610;28;20072;-70
2024/02/18 10:35:05;;;;;;;60.22;32.05;;;;;;;8.40;100.00;98023.78;5014405;28;20046;-70
2024/02/18 10:37:38;;;;;;;54.28;31.58;;;;;;;8.45;100.00;98022.88;5020863;28;20050;-70
2024/02/18 10:40:15;;;;;;;61.15;32.50;;;;;;;8.51;100.00;98023.53;4998454;28;20044;-70
2024/02/18 10:42:51;;;;;;;59.88;33.33;;;;;;;8.66;100.00;98017.59;5021081;28;20034;-70
2024/02/18 10:45:18;;;;;;;54.40;30.88;;;;;;;8.67;100.00;98015.66;5015378;28;20144;-70
2024/02/18 10:47:51;;;;;;;57.40;31.92;;;;;;;8.46;100.00;98010.81;5021393;28;20037;-70
2024/02/18 10:50:17;;;;;;;53.53;31.33;;;;;;;8.69;100.00;98010.66;5012953;28;20163;-70
2024/02/18 10:52:46;;;;;;;55.65;31.63;;;;;;;8.68;100.00;98003.59;5002915;28;20030;-70
2024/02/18 10:55:17;;;;;;;62.42;32.13;;;;;;;8.87;100.00;97995.06;5017050;28;20045;-71
2024/02/18 10:58:26;;;;;;;54.83;31.40;;;;;;;8.96;100.00;97991.19;5020964;28;20109;-72
2024/02/18 11:00:57;;;;;;;60.03;33.08;;;;;;;9.06;100.00;97983.81;5014977;28;20069;-71
2024/02/18 11:03:47;;;;;;;58.58;31.30;;;;;;;8.97;100.00;97983.81;5016180;28;20163;-71
2024/02/18 11:06:13;;;;;;;62.15;32.17;;;;;;;8.94;100.00;97985.25;5014670;28;20045;-70
2024/02/18 11:08:40;;;;;;;69.40;36.38;;;;;;;8.81;100.00;97983.50;5017573;28;20715;-71
2024/02/18 11:11:07;;;;;;;64.18;32.17;;;;;;;8.75;100.00;97977.41;5010685;28;20445;-70